createdAt,value
2022-07-26T00:00:12.834Z,50.69
2022-07-26T00:02:47.695Z,50.68
2022-07-26T00:07:42.019Z,50.80
2022-07-26T00:10:09.136Z,51.04
2022-07-26T00:12:36.044Z,51.06
2022-07-26T00:15:04.090Z,51.31
2022-07-26T00:17:30.705Z,51.32
2022-07-26T00:19:57.341Z,51.50
2022-07-26T00:22:35.932Z,51.73
2022-07-26T00:25:07.499Z,51.77
2022-07-26T00:27:37.433Z,51.71
2022-07-26T00:30:06.268Z,52.39
2022-07-26T00:32:32.995Z,52.47
2022-07-26T00:34:59.600Z,52.57
2022-07-26T00:37:26.278Z,52.70
2022-07-26T00:39:52.886Z,52.91
2022-07-26T00:42:19.510Z,52.95
2022-07-26T00:44:46.314Z,52.89
2022-07-26T00:47:13.976Z,52.97
2022-07-26T00:49:41.578Z,53.26
2022-07-26T00:52:09.539Z,53.02
2022-07-26T00:54:37.387Z,53.00
2022-07-26T00:57:05.003Z,53.19
2022-07-26T00:59:31.699Z,52.95
2022-07-26T01:01:58.762Z,53.60
2022-07-26T01:04:25.786Z,53.56
2022-07-26T01:06:53.455Z,53.79
2022-07-26T01:09:20.164Z,53.78
2022-07-26T01:11:46.866Z,53.75
2022-07-26T01:14:13.521Z,54.13
2022-07-26T01:16:40.410Z,54.24
2022-07-26T01:19:07.066Z,54.58
2022-07-26T01:21:34.110Z,54.40
2022-07-26T01:24:01.193Z,54.54
2022-07-26T01:26:28.436Z,54.86
2022-07-26T01:28:55.064Z,54.90
2022-07-26T01:31:22.103Z,55.01
2022-07-26T01:33:50.437Z,55.48
2022-07-26T01:36:17.732Z,55.03
2022-07-26T01:38:44.422Z,55.49
2022-07-26T01:41:12.135Z,55.83
2022-07-26T01:43:39.232Z,55.72
2022-07-26T01:46:10.102Z,56.22
2022-07-26T01:48:37.118Z,56.30
2022-07-26T01:51:04.007Z,56.52
2022-07-26T01:53:30.692Z,56.50
2022-07-26T01:55:57.720Z,56.43
2022-07-26T01:58:24.815Z,56.30
2022-07-26T02:00:51.559Z,56.21
2022-07-26T02:03:18.544Z,56.17
2022-07-26T02:05:45.559Z,56.24
2022-07-26T02:08:12.221Z,56.32
2022-07-26T02:10:58.379Z,56.60
2022-07-26T02:13:25.171Z,56.64
2022-07-26T02:15:51.990Z,56.73
2022-07-26T02:18:18.732Z,56.96
2022-07-26T02:20:45.416Z,56.95
2022-07-26T02:23:12.339Z,57.12
2022-07-26T02:25:39.068Z,57.14
2022-07-26T02:28:05.710Z,57.26
2022-07-26T02:30:32.402Z,57.21
2022-07-26T02:33:00.320Z,57.35
2022-07-26T02:35:27.270Z,57.47
2022-07-26T02:37:53.856Z,57.88
2022-07-26T02:40:20.472Z,57.63
2022-07-26T02:42:47.149Z,58.07
2022-07-26T02:45:13.750Z,58.08
2022-07-26T02:47:48.571Z,58.09
2022-07-26T02:50:19.453Z,58.29
2022-07-26T02:52:49.765Z,58.44
2022-07-26T02:55:17.791Z,58.64
2022-07-26T02:57:46.388Z,59.12
2022-07-26T03:00:20.098Z,59.95
2022-07-26T03:02:49.090Z,60.78
2022-07-26T03:05:16.774Z,61.70
2022-07-26T03:07:43.365Z,62.15
2022-07-26T03:10:10.233Z,62.60
2022-07-26T03:12:36.882Z,62.80
2022-07-26T03:15:04.015Z,63.32
2022-07-26T03:17:30.598Z,63.32
2022-07-26T03:19:59.216Z,63.82
2022-07-26T03:22:25.887Z,63.86
2022-07-26T03:24:52.493Z,63.84
2022-07-26T03:27:19.124Z,63.81
2022-07-26T03:29:45.761Z,63.68
2022-07-26T03:32:12.401Z,63.86
2022-07-26T03:34:39.001Z,63.60
2022-07-26T03:37:05.620Z,63.57
2022-07-26T03:39:32.300Z,63.26
2022-07-26T03:41:58.946Z,63.49
2022-07-26T03:44:25.536Z,63.46
2022-07-26T03:46:52.201Z,63.28
2022-07-26T03:49:19.048Z,63.21
2022-07-26T03:51:45.717Z,63.31
2022-07-26T03:54:12.628Z,63.18
2022-07-26T03:56:40.468Z,63.15
2022-07-26T03:59:09.041Z,63.15
2022-07-26T04:01:37.370Z,62.61
2022-07-26T04:04:04.576Z,63.09
2022-07-26T04:06:31.517Z,62.65
2022-07-26T04:08:58.210Z,62.84
2022-07-26T04:11:26.537Z,62.71
2022-07-26T04:13:54.988Z,62.59
2022-07-26T04:16:21.570Z,62.46
2022-07-26T04:18:48.255Z,62.70
2022-07-26T04:21:14.964Z,62.47
2022-07-26T04:23:41.758Z,62.28
2022-07-26T04:26:08.478Z,62.52
2022-07-26T04:28:35.131Z,62.80
2022-07-26T04:31:01.841Z,62.98
2022-07-26T04:33:28.513Z,62.91
2022-07-26T04:35:55.288Z,63.20
2022-07-26T04:38:22.249Z,63.32
2022-07-26T04:40:50.921Z,63.33
2022-07-26T04:43:18.287Z,63.55
2022-07-26T04:45:48.449Z,63.62
2022-07-26T04:48:15.911Z,63.57
2022-07-26T04:50:43.569Z,63.70
2022-07-26T04:53:11.173Z,63.96
2022-07-26T04:55:38.585Z,64.15
2022-07-26T04:58:05.649Z,64.26
2022-07-26T05:00:32.481Z,64.50
2022-07-26T05:03:00.667Z,64.40
2022-07-26T05:05:29.774Z,64.44
2022-07-26T05:08:00.629Z,64.55
2022-07-26T05:10:35.287Z,64.95
2022-07-26T05:13:06.430Z,65.40
2022-07-26T05:15:35.089Z,65.42
2022-07-26T05:18:07.071Z,65.89
2022-07-26T05:20:34.890Z,65.96
2022-07-26T05:23:01.624Z,66.30
2022-07-26T05:25:28.360Z,66.23
2022-07-26T05:27:54.999Z,66.44
2022-07-26T05:30:21.749Z,66.71
2022-07-26T05:32:48.392Z,66.80
2022-07-26T05:35:15.130Z,66.02
2022-07-26T05:37:41.809Z,66.43
2022-07-26T05:40:09.286Z,66.29
2022-07-26T05:42:36.158Z,66.01
2022-07-26T05:45:03.883Z,66.00
2022-07-26T05:47:30.560Z,65.82
2022-07-26T05:49:57.362Z,66.32
2022-07-26T05:52:24.029Z,66.20
2022-07-26T05:54:50.706Z,66.41
2022-07-26T05:57:17.376Z,66.95
2022-07-26T05:59:43.996Z,66.99
2022-07-26T06:02:10.671Z,67.00
2022-07-26T06:04:37.348Z,66.69
2022-07-26T06:07:04.019Z,66.77
2022-07-26T06:09:30.659Z,66.95
2022-07-26T06:11:57.287Z,66.69
2022-07-26T06:14:24.649Z,66.45
2022-07-26T06:16:51.407Z,65.80
2022-07-26T06:19:18.078Z,65.32
2022-07-26T06:21:46.111Z,64.47
2022-07-26T06:24:13.113Z,64.49
2022-07-26T06:26:39.964Z,64.26
2022-07-26T06:29:06.619Z,64.05
2022-07-26T06:31:33.856Z,64.07
2022-07-26T06:34:00.510Z,63.98
2022-07-26T06:36:30.544Z,63.99
2022-07-26T06:38:58.013Z,64.37
2022-07-26T06:41:24.654Z,64.28
2022-07-26T06:43:51.241Z,64.32
2022-07-26T06:46:19.446Z,64.56
2022-07-26T06:48:47.560Z,64.15
2022-07-26T06:51:19.557Z,64.33
2022-07-26T06:53:46.128Z,63.87
2022-07-26T06:56:14.904Z,63.83
2022-07-26T06:58:42.554Z,63.67
2022-07-26T07:01:09.575Z,64.00
2022-07-26T07:03:36.276Z,64.01
2022-07-26T07:06:03.240Z,64.13
2022-07-26T07:08:29.866Z,64.42
2022-07-26T07:10:56.770Z,64.53
2022-07-26T07:13:23.730Z,64.17
2022-07-26T07:15:50.359Z,63.63
2022-07-26T07:18:17.169Z,63.22
2022-07-26T07:20:43.763Z,62.41
2022-07-26T07:23:10.362Z,62.19
2022-07-26T07:25:36.996Z,62.66
2022-07-26T07:28:04.155Z,62.67
2022-07-26T07:30:31.009Z,62.49
2022-07-26T07:32:57.699Z,62.31
2022-07-26T07:35:24.322Z,62.48
2022-07-26T07:37:58.425Z,62.47
2022-07-26T07:40:25.214Z,62.87
2022-07-26T07:42:52.616Z,62.70
2022-07-26T07:45:19.266Z,62.79
2022-07-26T07:47:45.933Z,62.68
2022-07-26T07:50:12.618Z,62.69
2022-07-26T07:52:39.220Z,62.37
2022-07-26T07:55:36.915Z,61.72
2022-07-26T07:57:54.476Z,60.61
2022-07-26T08:00:27.216Z,60.31
2022-07-26T08:02:54.951Z,59.22
2022-07-26T08:05:21.749Z,58.71
2022-07-26T08:07:49.541Z,58.40
2022-07-26T08:10:19.187Z,58.64
2022-07-26T08:12:45.817Z,59.55
2022-07-26T08:15:18.000Z,59.65
2022-07-26T08:17:51.049Z,60.08
2022-07-26T08:20:20.730Z,59.74
2022-07-26T08:22:50.909Z,60.17
2022-07-26T08:25:17.643Z,60.81
2022-07-26T08:27:55.072Z,61.18
2022-07-26T08:30:29.555Z,61.66
2022-07-26T08:32:56.189Z,61.15
2022-07-26T08:35:22.930Z,60.42
2022-07-26T08:37:49.593Z,60.76
2022-07-26T08:40:16.515Z,61.06
2022-07-26T08:42:54.398Z,60.96
2022-07-26T08:45:23.219Z,60.03
2022-07-26T08:48:15.002Z,59.40
2022-07-26T08:50:37.195Z,57.33
2022-07-26T08:53:09.148Z,56.07
2022-07-26T08:56:04.373Z,56.45
2022-07-26T08:58:23.269Z,56.66
2022-07-26T09:01:06.922Z,56.91
2022-07-26T09:03:33.952Z,56.23
2022-07-26T09:06:15.534Z,55.71
2022-07-26T09:08:42.776Z,53.13
2022-07-26T09:11:24.376Z,53.25
2022-07-26T09:14:02.849Z,54.24
2022-07-26T09:16:30.856Z,52.83
2022-07-26T09:19:18.993Z,51.36
2022-07-26T09:21:46.668Z,50.65
2022-07-26T09:24:13.998Z,50.36
2022-07-26T09:26:40.696Z,49.88
2022-07-26T09:29:12.772Z,48.94
2022-07-26T09:31:40.357Z,47.19
2022-07-26T09:34:08.173Z,46.05
2022-07-26T09:36:51.118Z,44.99
2022-07-26T09:39:17.799Z,45.18
2022-07-26T09:42:25.090Z,45.05
2022-07-26T09:44:48.177Z,45.96
2022-07-26T09:47:14.994Z,45.60
2022-07-26T09:49:42.331Z,45.61
2022-07-26T09:52:35.377Z,44.20
2022-07-26T09:55:06.390Z,43.86
2022-07-26T09:57:35.215Z,43.46
2022-07-26T10:00:05.649Z,44.23
2022-07-26T10:02:33.206Z,43.42
2022-07-26T10:04:59.841Z,42.98
2022-07-26T10:07:26.612Z,41.72
2022-07-26T10:09:59.459Z,41.22
2022-07-26T10:12:31.261Z,40.94
2022-07-26T10:14:58.107Z,39.30
2022-07-26T10:17:35.238Z,39.45
2022-07-26T10:20:16.840Z,39.36
2022-07-26T10:22:50.632Z,38.75
2022-07-26T10:25:17.377Z,38.74
2022-07-26T10:27:45.502Z,38.71
2022-07-26T10:30:18.353Z,38.70
2022-07-26T10:32:51.370Z,38.36
2022-07-26T10:35:45.021Z,38.09
2022-07-26T10:38:22.132Z,39.08
2022-07-26T10:41:07.605Z,39.88
2022-07-26T10:43:42.835Z,39.70
2022-07-26T10:46:15.555Z,39.24
2022-07-26T10:49:06.374Z,39.43
2022-07-26T10:51:34.514Z,39.03
2022-07-26T10:54:09.417Z,39.37
2022-07-26T10:56:37.760Z,39.74
2022-07-26T10:59:05.991Z,39.80
2022-07-26T11:01:41.005Z,39.86
2022-07-26T11:04:27.992Z,40.01
2022-07-26T11:07:00.630Z,39.32
2022-07-26T11:09:34.500Z,39.29
2022-07-26T11:12:21.609Z,38.07
2022-07-26T11:14:48.873Z,37.51
2022-07-26T11:17:30.699Z,36.65
2022-07-26T11:19:57.994Z,36.85
2022-07-26T11:22:35.371Z,36.21
2022-07-26T11:25:03.191Z,36.21
2022-07-26T11:27:29.782Z,36.38
2022-07-26T11:30:04.712Z,36.10
2022-07-26T11:32:32.075Z,36.21
2022-07-26T11:35:01.094Z,35.74
2022-07-26T11:37:28.489Z,35.04
2022-07-26T11:39:55.273Z,34.17
2022-07-26T11:42:22.381Z,34.01
2022-07-26T11:44:50.706Z,34.04
2022-07-26T11:47:20.396Z,34.25
2022-07-26T11:50:01.074Z,34.92
2022-07-26T11:52:35.234Z,36.85
2022-07-26T11:55:01.872Z,37.03
2022-07-26T11:57:31.053Z,37.11
2022-07-26T12:00:00.646Z,35.93
2022-07-26T12:02:38.354Z,35.58
2022-07-26T12:05:23.275Z,34.91
2022-07-26T12:08:04.222Z,34.78
2022-07-26T12:10:31.482Z,34.60
2022-07-26T12:13:11.545Z,35.06
2022-07-26T12:15:46.507Z,35.64
2022-07-26T12:18:30.448Z,34.64
2022-07-26T12:21:07.492Z,34.38
2022-07-26T12:23:41.564Z,34.24
2022-07-26T12:26:28.317Z,32.21
2022-07-26T12:28:55.856Z,32.02
2022-07-26T12:31:23.881Z,33.29
2022-07-26T12:33:50.616Z,34.36
2022-07-26T12:36:28.017Z,35.04
2022-07-26T12:38:57.481Z,34.33
2022-07-26T12:41:39.576Z,34.22
2022-07-26T12:44:11.515Z,34.49
2022-07-26T12:46:39.093Z,34.60
2022-07-26T12:49:05.979Z,35.35
2022-07-26T12:51:33.424Z,34.35
2022-07-26T12:54:00.158Z,33.92
2022-07-26T12:56:26.829Z,33.30
2022-07-26T12:58:54.306Z,32.41
2022-07-26T13:01:21.374Z,32.61
2022-07-26T13:03:48.190Z,32.42
2022-07-26T13:06:14.774Z,32.16
2022-07-26T13:08:41.427Z,32.11
2022-07-26T13:11:08.052Z,32.54
2022-07-26T13:13:34.681Z,31.16
2022-07-26T13:16:01.293Z,31.47
2022-07-26T13:18:27.956Z,31.81
2022-07-26T13:20:54.567Z,32.88
2022-07-26T13:23:21.571Z,32.60
2022-07-26T13:25:49.785Z,33.65
2022-07-26T13:28:17.198Z,32.99
2022-07-26T13:30:44.072Z,32.88
2022-07-26T13:33:11.592Z,33.12
2022-07-26T13:35:42.617Z,33.25
2022-07-26T13:38:09.816Z,33.75
2022-07-26T13:40:36.711Z,32.99
2022-07-26T13:43:04.399Z,31.67
2022-07-26T13:45:31.020Z,30.58
2022-07-26T13:47:58.838Z,31.67
2022-07-26T13:50:27.176Z,31.43
2022-07-26T13:52:56.221Z,31.96
2022-07-26T13:55:23.485Z,31.43
2022-07-26T13:57:57.015Z,30.93
2022-07-26T14:00:29.288Z,30.61
2022-07-26T14:02:58.335Z,30.35
2022-07-26T14:05:27.775Z,30.35
2022-07-26T14:07:55.177Z,29.92
2022-07-26T14:10:23.063Z,29.51
2022-07-26T14:12:50.021Z,29.80
2022-07-26T14:15:22.003Z,29.58
2022-07-26T14:17:50.255Z,29.43
2022-07-26T14:20:20.042Z,29.48
2022-07-26T14:22:47.497Z,29.34
2022-07-26T14:25:14.702Z,29.04
2022-07-26T14:27:41.325Z,28.66
2022-07-26T14:30:08.226Z,28.75
2022-07-26T14:32:34.974Z,28.03
2022-07-26T14:35:01.663Z,28.07
2022-07-26T14:37:41.884Z,28.94
2022-07-26T14:40:17.421Z,29.02
2022-07-26T14:42:45.384Z,29.24
2022-07-26T14:45:12.703Z,28.78
2022-07-26T14:47:40.273Z,28.44
2022-07-26T14:50:08.505Z,28.01
2022-07-26T14:52:44.755Z,27.10
2022-07-26T14:55:12.676Z,27.30
2022-07-26T14:57:40.293Z,28.01
2022-07-26T15:00:10.680Z,28.18
2022-07-26T15:02:42.754Z,28.02
2022-07-26T15:05:12.209Z,27.54
2022-07-26T15:07:40.953Z,28.24
2022-07-26T15:10:10.302Z,28.42
2022-07-26T15:12:37.378Z,28.20
2022-07-26T15:15:05.770Z,28.33
2022-07-26T15:17:32.482Z,27.98
2022-07-26T15:19:59.206Z,27.91
2022-07-26T15:22:26.544Z,27.87
2022-07-26T15:24:53.108Z,27.70
2022-07-26T15:27:19.827Z,27.93
2022-07-26T15:29:48.593Z,27.38
2022-07-26T15:32:15.274Z,28.10
2022-07-26T15:34:41.971Z,27.43
2022-07-26T15:37:09.518Z,27.32
2022-07-26T15:39:36.100Z,27.67
2022-07-26T15:42:07.429Z,27.32
2022-07-26T15:44:34.580Z,26.84
2022-07-26T15:47:01.673Z,27.24
2022-07-26T15:49:30.565Z,27.01
2022-07-26T15:51:57.215Z,26.59
2022-07-26T15:54:23.827Z,26.64
2022-07-26T15:56:50.480Z,26.61
2022-07-26T15:59:17.092Z,26.80
2022-07-26T16:01:43.733Z,27.06
2022-07-26T16:04:10.681Z,26.83
2022-07-26T16:06:37.594Z,26.13
2022-07-26T16:09:20.204Z,26.67
2022-07-26T16:11:48.691Z,26.31
2022-07-26T16:14:16.710Z,26.19
2022-07-26T16:16:43.754Z,26.27
2022-07-26T16:19:11.058Z,25.90
2022-07-26T16:21:38.323Z,26.25
2022-07-26T16:24:07.314Z,25.79
2022-07-26T16:26:35.460Z,26.92
2022-07-26T16:29:02.545Z,26.70
2022-07-26T16:31:29.530Z,26.92
2022-07-26T16:33:56.208Z,26.22
2022-07-26T16:36:22.796Z,27.02
2022-07-26T16:38:49.419Z,27.08
2022-07-26T16:41:16.033Z,27.50
2022-07-26T16:43:42.998Z,27.26
2022-07-26T16:46:09.597Z,27.38
2022-07-26T16:48:36.243Z,27.37
2022-07-26T16:51:03.139Z,27.65
2022-07-26T16:53:29.732Z,27.99
2022-07-26T16:55:56.327Z,27.65
2022-07-26T16:58:22.912Z,27.70
2022-07-26T17:00:49.674Z,27.95
2022-07-26T17:03:16.764Z,27.49
2022-07-26T17:05:44.573Z,27.37
2022-07-26T17:08:11.342Z,27.52
2022-07-26T17:10:38.187Z,27.26
2022-07-26T17:13:04.898Z,27.00
2022-07-26T17:15:31.516Z,27.11
2022-07-26T17:17:58.200Z,26.72
2022-07-26T17:20:24.842Z,26.67
2022-07-26T17:22:51.482Z,26.89
2022-07-26T17:25:18.073Z,26.85
2022-07-26T17:27:44.680Z,27.46
2022-07-26T17:30:12.133Z,27.71
2022-07-26T17:32:38.878Z,27.97
2022-07-26T17:35:06.612Z,27.75
2022-07-26T17:37:36.711Z,27.48
2022-07-26T17:40:05.248Z,27.56
2022-07-26T17:42:35.037Z,27.29
2022-07-26T17:45:01.805Z,27.19
2022-07-26T17:47:30.407Z,27.32
2022-07-26T17:50:26.144Z,27.06
2022-07-26T17:52:50.094Z,25.54
2022-07-26T17:55:19.014Z,23.70
2022-07-26T17:57:47.753Z,21.20
2022-07-26T18:00:15.537Z,20.26
2022-07-26T18:02:42.257Z,20.06
2022-07-26T18:05:09.593Z,20.94
2022-07-26T18:07:36.427Z,21.82
2022-07-26T18:10:03.960Z,23.11
2022-07-26T18:12:30.607Z,24.81
2022-07-26T18:14:57.389Z,26.28
2022-07-26T18:17:24.455Z,28.00
2022-07-26T18:19:51.043Z,29.03
2022-07-26T18:22:17.642Z,29.97
2022-07-26T18:24:44.239Z,30.44
2022-07-26T18:27:10.813Z,31.33
2022-07-26T18:29:37.468Z,31.94
2022-07-26T18:32:04.172Z,32.68
2022-07-26T18:34:30.828Z,33.29
2022-07-26T18:36:57.437Z,33.65
2022-07-26T18:39:24.019Z,34.76
2022-07-26T18:41:50.620Z,35.21
2022-07-26T18:44:17.243Z,35.45
2022-07-26T18:46:43.903Z,36.15
2022-07-26T18:49:15.757Z,36.20
2022-07-26T18:51:48.476Z,36.60
2022-07-26T18:54:16.168Z,37.08
2022-07-26T18:56:42.840Z,37.33
2022-07-26T18:59:09.912Z,37.71
2022-07-26T19:01:36.789Z,38.07
2022-07-26T19:04:06.725Z,38.31
2022-07-26T19:06:34.804Z,38.41
2022-07-26T19:09:01.533Z,38.80
2022-07-26T19:11:29.619Z,39.19
2022-07-26T19:13:56.261Z,39.20
2022-07-26T19:16:22.973Z,39.45
2022-07-26T19:18:53.866Z,39.29
2022-07-26T19:21:23.578Z,39.69
2022-07-26T19:23:50.370Z,39.79
2022-07-26T19:26:17.133Z,40.01
2022-07-26T19:28:43.758Z,40.08
2022-07-26T19:31:10.743Z,40.24
2022-07-26T19:33:37.539Z,40.21
2022-07-26T19:36:04.329Z,40.39
2022-07-26T19:38:33.018Z,40.55
2022-07-26T19:41:00.645Z,40.36
2022-07-26T19:43:27.869Z,40.59
2022-07-26T19:45:54.853Z,40.85
2022-07-26T19:48:21.554Z,40.83
2022-07-26T19:50:48.686Z,40.80
2022-07-26T19:53:15.355Z,40.95
2022-07-26T19:55:42.493Z,40.89
2022-07-26T19:58:09.430Z,41.15
2022-07-26T20:00:36.222Z,41.05
2022-07-26T20:03:03.071Z,41.34
2022-07-26T20:05:29.746Z,41.65
2022-07-26T20:07:56.572Z,42.06
2022-07-26T20:10:26.234Z,42.10
2022-07-26T20:12:55.218Z,42.14
2022-07-26T20:15:22.578Z,42.08
2022-07-26T20:17:49.193Z,42.20
2022-07-26T20:20:17.846Z,42.46
2022-07-26T20:22:44.486Z,42.58
2022-07-26T20:25:11.277Z,42.77
2022-07-26T20:27:37.967Z,43.25
2022-07-26T20:30:05.842Z,43.24
2022-07-26T20:32:32.481Z,43.31
2022-07-26T20:34:59.060Z,43.27
2022-07-26T20:37:25.852Z,43.13
2022-07-26T20:39:52.431Z,43.37
2022-07-26T20:42:21.380Z,43.50
2022-07-26T20:44:48.782Z,43.72
2022-07-26T20:47:15.580Z,43.97
2022-07-26T20:49:42.202Z,44.35
2022-07-26T20:52:08.846Z,44.72
2022-07-26T20:54:35.540Z,44.85
2022-07-26T20:57:04.399Z,44.56
2022-07-26T20:59:32.426Z,44.63
2022-07-26T21:01:59.206Z,44.40
2022-07-26T21:04:26.214Z,44.34
2022-07-26T21:06:52.991Z,44.21
2022-07-26T21:09:19.892Z,44.29
2022-07-26T21:11:46.866Z,44.37
2022-07-26T21:14:14.118Z,44.40
2022-07-26T21:16:41.054Z,44.72
2022-07-26T21:19:07.852Z,44.86
2022-07-26T21:21:36.436Z,44.91
2022-07-26T21:24:03.084Z,44.92
2022-07-26T21:26:29.827Z,45.17
2022-07-26T21:28:56.534Z,45.33
2022-07-26T21:31:23.219Z,45.68
2022-07-26T21:33:50.213Z,45.66
2022-07-26T21:36:16.771Z,45.75
2022-07-26T21:38:43.583Z,45.88
2022-07-26T21:41:10.358Z,46.25
2022-07-26T21:43:40.960Z,46.48
2022-07-26T21:46:12.212Z,46.62
2022-07-26T21:48:40.056Z,46.63
2022-07-26T21:51:06.776Z,46.87
2022-07-26T21:53:33.410Z,47.09
2022-07-26T21:55:59.991Z,47.00
2022-07-26T21:58:28.123Z,47.12
2022-07-26T22:01:06.130Z,47.32
2022-07-26T22:03:35.651Z,47.45
2022-07-26T22:06:03.196Z,47.78
2022-07-26T22:08:29.927Z,47.92
2022-07-26T22:10:56.602Z,47.90
2022-07-26T22:13:23.391Z,48.15
2022-07-26T22:15:50.156Z,48.38
2022-07-26T22:18:17.418Z,48.38
2022-07-26T22:20:44.269Z,48.29
2022-07-26T22:23:12.886Z,48.57
2022-07-26T22:25:39.830Z,48.26
2022-07-26T22:28:07.638Z,48.46
2022-07-26T22:30:34.776Z,48.42
2022-07-26T22:33:03.193Z,48.53
2022-07-26T22:35:35.019Z,48.84
2022-07-26T22:38:10.799Z,49.57
2022-07-26T22:40:39.285Z,49.88
2022-07-26T22:43:06.751Z,49.65
2022-07-26T22:45:33.821Z,49.79
2022-07-26T22:48:01.767Z,49.93
2022-07-26T22:50:28.355Z,49.90
2022-07-26T22:52:55.495Z,49.87
2022-07-26T22:55:22.151Z,49.92
2022-07-26T22:57:48.993Z,49.70
2022-07-26T23:00:17.903Z,50.00
2022-07-26T23:02:44.946Z,49.94
2022-07-26T23:05:12.634Z,50.67
2022-07-26T23:07:40.115Z,50.73
2022-07-26T23:10:11.005Z,50.16
2022-07-26T23:12:38.182Z,50.47
2022-07-26T23:15:06.070Z,50.60
2022-07-26T23:17:32.727Z,50.37
2022-07-26T23:19:59.310Z,50.79
2022-07-26T23:22:26.012Z,50.62
2022-07-26T23:24:52.629Z,50.78
2022-07-26T23:27:20.346Z,50.77
2022-07-26T23:29:48.228Z,50.77
2022-07-26T23:32:15.772Z,50.62
2022-07-26T23:34:42.765Z,50.58
2022-07-26T23:37:09.584Z,50.82
2022-07-26T23:39:36.237Z,50.55
2022-07-26T23:42:03.034Z,50.69
2022-07-26T23:44:30.719Z,51.01
2022-07-26T23:46:58.352Z,51.07
2022-07-26T23:49:25.655Z,51.40
2022-07-26T23:51:52.593Z,51.43
2022-07-26T23:54:19.219Z,51.61
2022-07-26T23:56:45.824Z,51.68
2022-07-26T23:59:13.471Z,52.05
